Terminal Aerodrome Forecast
Issued by NWS

Home | Current Version | Previous Version | Text Only | Print | Product List | Glossary On
Versions: 1 2 3 4 5 6 7 8 9 10 11 12 13 14 15 16 17 18 19
000
FTUS44 KOUN 221128
TAFPNC
TAF
KPNC 221128Z 2212/2312 16010KT P6SM SCT040
     FM222100 15008KT P6SM BKN040 BKN100
      TEMPO 2223/2303 P6SM -SHRA OVC050
     FM230300 15003KT P6SM OVC025 PROB30 2303/2309 4SM -RA OVC025=

USA.gov is the U.S. government's official web portal to all federal, state and local government web resources and services.